Currently 69°F in San Jacinto, California, USA
69°F
69°F / 47°F
calm
0.00"
Friday, December 6, 2019 12:53 PM PST

San Jacinto, California Weather Summary
Last 36 Hours

Temperature Winds Hourly Humidity Dewpoint
Time Report Norm Report Norm Max Gusts Precip. Rpt. Norm Rpt. Norm Pressure
1Fri 12:53 PM  68.5°F  66°F  calm  3 mph  11 mph  0.00"  44%  35%  45°F  37°F  30.14"
2Fri 12:31 PM  69.1°F  66°F  9 mph SW  2 mph  11 mph  ----  44%  36%  45°F  37°F  30.16"
Fri 12:00 PM  68.4°F  65°F  3 mph W  2 mph  10 mph  0.00"  44%  37%  45°F  37°F  30.15"
Fri 11:00 AM  66.0°F  62°F  calm  1 mph  5 mph  0.00"  49%  43%  46°F  38°F  30.16"
Fri 10:00 AM  61.0°F  58°F  calm  1 mph  3 mph  0.00"  57%  51%  45°F  39°F  30.19"
Fri 09:00 AM  55.8°F  53°F  calm  1 mph  3 mph  0.00"  74%  59%  47°F  39°F  30.20"
Fri 08:00 AM  50.4°F  47°F  calm  1 mph  2 mph  0.00"  81%  69%  45°F  37°F  30.20"
Fri 07:00 AM  46.9°F  44°F  calm  1 mph  3 mph  0.00"  87%  73%  43°F  36°F  30.17"
3Fri 06:23 AM  46.8°F  44°F  calm  1 mph  none  ----  86%  73%  43°F  36°F  30.15"
Fri 06:00 AM  47.3°F  44°F  calm  1 mph  5 mph  0.00"  85%  72%  43°F  36°F  30.14"
Fri 05:00 AM  48.4°F  45°F  calm  calm  3 mph  0.00"  83%  72%  43°F  36°F  30.14"
Fri 04:00 AM  48.7°F  45°F  calm  1 mph  none  0.00"  84%  71%  44°F  36°F  30.16"
Fri 03:00 AM  49.8°F  46°F  calm  1 mph  3 mph  0.00"  81%  70%  44°F  36°F  30.15"
Fri 02:00 AM  49.6°F  47°F  calm  1 mph  3 mph  0.00"  83%  68%  44°F  37°F  30.14"
Fri 01:00 AM  50.2°F  48°F  calm  1 mph  2 mph  0.00"  83%  68%  45°F  37°F  30.14"
Fri 12:00 AM  50.5°F  49°F  calm  1 mph  1 mph  0.00"  85%  65%  46°F  37°F  30.15"
Thu 11:00 PM  51.4°F  50°F  calm  1 mph  3 mph  0.00"  82%  63%  46°F  37°F  30.14"
Thu 10:00 PM  53.8°F  51°F  calm  1 mph  3 mph  0.00"  78%  61%  47°F  38°F  30.14"
Thu 09:00 PM  52.2°F  53°F  calm  1 mph  none  0.00"  85%  58%  48°F  38°F  30.15"
Thu 08:00 PM  53.4°F  54°F  calm  1 mph  3 mph  0.00"  83%  56%  48°F  38°F  30.13"
Thu 07:00 PM  55.4°F  56°F  calm  1 mph  3 mph  0.00"  79%  52%  49°F  38°F  30.12"
Thu 06:00 PM  57.2°F  58°F  calm  2 mph  none  0.00"  77%  48%  50°F  38°F  30.13"
Thu 05:00 PM  59.5°F  61°F  calm  2 mph  none  0.00"  71%  44%  50°F  38°F  30.11"
Thu 04:00 PM  61.2°F  65°F  calm  2 mph  3 mph  0.00"  65%  38%  49°F  38°F  30.12"
Thu 03:00 PM  61.5°F  66°F  calm  2 mph  8 mph  0.00"  65%  36%  49°F  37°F  30.11"
Thu 02:00 PM  60.8°F  66°F  calm  3 mph  9 mph  0.00"  69%  35%  50°F  37°F  30.11"
Thu 01:00 PM  61.9°F  66°F  4 mph NW  2 mph  5 mph  0.00"  59%  35%  47°F  36°F  30.13"
Thu 12:00 PM  61.0°F  64°F  calm  2 mph  3 mph  0.00"  65%  38%  49°F  37°F  30.15"
Thu 11:00 AM  58.1°F  61°F  2 mph W  1 mph  6 mph  0.00"  74%  43%  50°F  38°F  30.17"
Thu 10:00 AM  54.7°F  57°F  calm  1 mph  2 mph  0.00"  86%  51%  50°F  39°F  30.20"
Thu 09:00 AM  50.4°F  52°F  calm  1 mph  none  0.00"  94%  60%  49°F  38°F  30.20"
Thu 08:00 AM  46.6°F  47°F  calm  1 mph  none  0.00"  94%  69%  45°F  37°F  30.19"
Thu 07:00 AM  44.1°F  44°F  calm  1 mph  none  0.00"  93%  73%  42°F  35°F  30.16"
Thu 06:00 AM  45.1°F  44°F  calm  1 mph  none  0.00"  92%  72%  43°F  35°F  30.13"
Thu 05:00 AM  46.0°F  44°F  calm  calm  3 mph  0.00"  92%  72%  44°F  35°F  30.10"
Thu 04:00 AM  47.1°F  45°F  calm  1 mph  6 mph  0.00"  93%  71%  45°F  36°F  30.08"
Thu 03:00 AM  48.7°F  46°F  calm  1 mph  none  0.00"  92%  69%  46°F  36°F  30.08"
Thu 02:00 AM  50.2°F  46°F  calm  1 mph  3 mph  0.00"  92%  68%  48°F  36°F  30.07"
Thu 01:00 AM  52.2°F  47°F  calm  1 mph  2 mph  0.00"  92%  67%  50°F  36°F  30.08"

  1. Current weather data. No green row appears if the current weather data is also the high or low for the current day.
  2. High temperature for the current day.
  3. Low temperature for the current day.

The San Jacinto, California weather pages are a service of WeatherCurrents. San Jacinto is located in the heart of the San Jacinto Valley, near Hemet, the Soboba Casino, and at the foot of the San Jacinto Mountains.
Copyright ©2019  WeatherCurrents. All rights reserved. - Submit questions and comments - Privacy Policy

This page automatically refreshes every 10 minutes.